Lula, MS (38644)

3:55 PM CDT on September 02, 2014 (GMT -0500)
Fletcher | Change Station
CLOSE
Current Station
Airport
Location: Clarksdale Fletcher Field Air,
Elevation: 174 ft
Nearby Weather Stations

Elev 174 ft 34.30 °N, 90.51 °W | Updated 20 minutes ago

Mostly Cloudy
Mostly Cloudy
75 °F
Feels Like 75 °F
N
0
Wind Variable Wind from North

Today
High -- | Low -- °F
--% Chance of Precip.
Yesterday
High -- | Low -- °F
Precip. -- in
6:35 AM 7:26 PM
First Quarter, 55% visible
Pressure 30.01 in
Visibility 9.0 miles
Clouds Few 2100 ft
Mostly Cloudy 3000 ft
Mostly Cloudy 3500 ft
Dew Point 75 °F
Humidity 100%
Rainfall 0.03 in
Snow Depth Not available.
UV 3 out of 12
Pollen 10.40 out of 12
Air Quality Not available.
Flu Activity Not available.
METAR KCKM 022035Z AUTO 00000KT 9SM FEW021 BKN030 BKN035 24/24 A3001 RMK AO1 P0002

More Conditions Fewer Conditions

Pressure 30.01 in
Visibility 9.0 miles
Clouds Few 2100 ft
Mostly Cloudy 3000 ft
Mostly Cloudy 3500 ft
Dew Point 75 °F
Humidity 100%
Rainfall 0.03 in
Snow Depth Not available.
UV 3 out of 12
Pollen 10.40 out of 12
Air Quality Not available.
Flu Activity Not available.
METAR KCKM 022035Z AUTO 00000KT 9SM FEW021 BKN030 BKN035 24/24 A3001 RMK AO1 P0002

More Conditions Fewer Conditions

10-Day Weather Forecast

Almanac

Astronomy

Sep. 02, 2014 Rise Set
Actual Time 6:35 AM CDT 7:26 PM CDT
Civil Twilight 6:10 AM CDT 7:52 PM CDT
Nautical Twilight 5:39 AM CDT 8:22 PM CDT
Astronomical Twilight 5:08 AM CDT 8:53 PM CDT
Moon 2:02 PM CDT No Moon Set
Length of Visible Light 13h 42m
Length of Day
12h 50m
Tomorrow will be 2m 4s shorter.
First Quarter, 55% of the Moon is Illuminated
Today
First Quarter
Sep 8
Full
Sep 15
Last Quarter
Sep 24
New
Oct 1
First Quarter

Today's Extremes

State Highs State Lows

Community

WunderPhotos

Upload Photos

1,749,763 photos uploaded!

WunderBlogs® & News

Nearby

Snow Depth

Station Depth Elevation
No new snow has been reported.

Earthquake Activity

City Distance Mag. Time & Date
Tiptonville, Tennessee 144 miles 2.9 11:19 PM CDT
2014-08-31
Minimum magnitude displayed is 2.5.

Coastal Water Temperatures

Place Temperature
No Stations Reporting

Nearby Weather Stations